createdAt,value
2022-08-31T04:00:24.342Z,69.29
2022-08-31T04:03:00.170Z,69.43
2022-08-31T04:05:36.656Z,69.57
2022-08-31T04:08:44.761Z,69.57
2022-08-31T04:11:44.966Z,69.67
2022-08-31T04:14:34.096Z,69.29
2022-08-31T04:17:22.924Z,69.42
2022-08-31T04:20:00.559Z,69.37
2022-08-31T04:22:46.428Z,69.46
2022-08-31T04:25:30.238Z,69.38
2022-08-31T04:27:58.949Z,69.35
2022-08-31T04:30:29.070Z,69.41
2022-08-31T04:32:58.834Z,69.22
2022-08-31T04:35:37.209Z,69.03
2022-08-31T04:38:10.496Z,69.12
2022-08-31T04:40:43.597Z,69.23
2022-08-31T04:43:12.859Z,69.25
2022-08-31T04:45:46.229Z,69.33
2022-08-31T04:48:15.745Z,69.40
2022-08-31T04:50:44.797Z,69.38
2022-08-31T04:53:13.961Z,69.26
2022-08-31T04:55:43.995Z,69.26
2022-08-31T04:58:14.716Z,69.32
2022-08-31T05:00:44.542Z,69.52
2022-08-31T05:03:27.257Z,69.53
2022-08-31T05:05:57.347Z,69.49
2022-08-31T05:08:26.393Z,69.32
2022-08-31T05:10:55.845Z,69.51
2022-08-31T05:13:25.351Z,69.63
2022-08-31T05:15:56.045Z,69.43
2022-08-31T05:18:26.833Z,69.51
2022-08-31T05:21:08.640Z,69.56
2022-08-31T05:23:38.431Z,69.63
2022-08-31T05:26:09.171Z,69.57
2022-08-31T05:28:40.105Z,69.54
2022-08-31T05:31:09.174Z,69.52
2022-08-31T05:33:44.360Z,69.75
2022-08-31T05:36:15.207Z,69.62
2022-08-31T05:38:45.134Z,69.55
2022-08-31T05:41:16.099Z,69.60
2022-08-31T05:43:45.524Z,69.31
2022-08-31T05:46:16.599Z,69.37
2022-08-31T05:48:49.300Z,69.08
2022-08-31T05:51:22.911Z,68.94
2022-08-31T05:53:52.432Z,68.93
2022-08-31T05:56:28.107Z,68.69
2022-08-31T05:58:58.318Z,67.62
2022-08-31T06:01:34.719Z,65.66
2022-08-31T06:04:23.649Z,63.62
2022-08-31T06:06:52.945Z,63.07
2022-08-31T06:09:26.074Z,62.87
2022-08-31T06:11:55.680Z,61.97
2022-08-31T06:14:24.539Z,60.76
2022-08-31T06:16:56.778Z,60.41
2022-08-31T06:19:27.797Z,59.81
2022-08-31T06:21:58.800Z,59.50
2022-08-31T06:24:28.845Z,59.50
2022-08-31T06:27:00.592Z,60.55
2022-08-31T06:29:33.592Z,61.77
2022-08-31T06:32:13.738Z,62.33
2022-08-31T06:34:53.426Z,62.48
2022-08-31T06:37:57.223Z,62.82
2022-08-31T06:40:44.140Z,62.89
2022-08-31T06:43:49.394Z,63.02
2022-08-31T06:46:40.085Z,63.07
2022-08-31T06:49:20.970Z,62.93
2022-08-31T06:51:51.464Z,63.19
2022-08-31T06:54:29.380Z,63.19
2022-08-31T06:57:18.674Z,62.68
2022-08-31T07:00:08.522Z,62.81
2022-08-31T07:02:43.031Z,62.70
2022-08-31T07:05:24.346Z,62.59
2022-08-31T07:07:55.735Z,62.85
2022-08-31T07:10:24.507Z,62.86
2022-08-31T07:12:53.579Z,62.88
2022-08-31T07:15:24.093Z,62.71
2022-08-31T07:17:53.201Z,62.45
2022-08-31T07:20:22.373Z,62.35
2022-08-31T07:22:51.436Z,62.25
2022-08-31T07:25:34.530Z,62.16
2022-08-31T07:28:03.479Z,62.18
2022-08-31T07:30:42.960Z,62.01
2022-08-31T07:33:17.317Z,61.95
2022-08-31T07:35:53.630Z,61.96
2022-08-31T07:39:02.314Z,61.95
2022-08-31T07:41:52.449Z,61.82
2022-08-31T07:44:24.003Z,61.43
2022-08-31T07:46:55.768Z,61.33
2022-08-31T07:49:26.712Z,61.63
2022-08-31T07:52:21.697Z,61.46
2022-08-31T07:55:08.662Z,61.48
2022-08-31T07:58:01.548Z,61.26
2022-08-31T08:00:36.971Z,61.34
2022-08-31T08:03:13.128Z,61.59
2022-08-31T08:06:13.612Z,61.58
2022-08-31T08:09:24.163Z,61.67
2022-08-31T08:12:07.457Z,61.45
2022-08-31T08:15:00.711Z,61.30
2022-08-31T08:17:54.049Z,61.42
2022-08-31T08:20:37.314Z,61.39
2022-08-31T08:23:14.101Z,61.42
2022-08-31T08:25:48.275Z,61.37
2022-08-31T08:28:40.642Z,61.13
2022-08-31T08:31:19.641Z,61.38
2022-08-31T08:33:48.666Z,61.10
2022-08-31T08:36:19.080Z,61.22
2022-08-31T08:38:51.646Z,61.07
2022-08-31T08:41:27.822Z,61.05
2022-08-31T08:44:01.409Z,60.99
2022-08-31T08:46:36.762Z,60.86
2022-08-31T08:49:28.993Z,60.63
2022-08-31T08:52:04.432Z,60.62
2022-08-31T08:54:41.530Z,60.80
2022-08-31T08:57:22.132Z,60.73
2022-08-31T08:59:57.164Z,60.39
2022-08-31T09:02:50.797Z,60.19
2022-08-31T09:05:50.793Z,60.17
2022-08-31T09:09:08.724Z,60.24
2022-08-31T09:11:47.389Z,60.10
2022-08-31T09:14:25.413Z,59.97
2022-08-31T09:17:18.640Z,59.46
2022-08-31T09:20:06.634Z,59.47
2022-08-31T09:22:52.390Z,59.56
2022-08-31T09:25:36.171Z,59.62
2022-08-31T09:28:39.599Z,59.02
2022-08-31T09:31:08.832Z,58.86
2022-08-31T09:33:51.376Z,58.83
2022-08-31T09:36:23.350Z,59.00
2022-08-31T09:38:52.858Z,58.65
2022-08-31T09:41:31.875Z,58.58
2022-08-31T09:44:32.495Z,58.28
2022-08-31T09:47:13.900Z,58.20
2022-08-31T09:49:56.084Z,58.02
2022-08-31T09:52:48.506Z,57.90
2022-08-31T09:55:25.861Z,57.35
2022-08-31T09:57:56.832Z,57.60
2022-08-31T10:00:48.038Z,58.01
2022-08-31T10:03:23.994Z,57.58
2022-08-31T10:05:55.216Z,57.64
2022-08-31T10:08:46.538Z,57.40
2022-08-31T10:11:21.361Z,57.32
2022-08-31T10:13:59.237Z,57.25
2022-08-31T10:16:33.163Z,57.03
2022-08-31T10:19:33.139Z,56.72
2022-08-31T10:22:28.940Z,56.66
2022-08-31T10:25:13.485Z,56.55
2022-08-31T10:27:49.045Z,56.71
2022-08-31T10:30:23.216Z,56.68
2022-08-31T10:33:05.901Z,56.84
2022-08-31T10:35:53.341Z,56.35
2022-08-31T10:38:26.882Z,56.31
2022-08-31T10:41:19.778Z,56.40
2022-08-31T10:43:56.129Z,56.77
2022-08-31T10:46:25.397Z,56.85
2022-08-31T10:48:57.437Z,56.97
2022-08-31T10:52:05.835Z,57.09
2022-08-31T10:54:55.244Z,57.26
2022-08-31T10:57:32.203Z,57.15
2022-08-31T11:00:36.088Z,57.12
2022-08-31T11:03:25.202Z,57.31
2022-08-31T11:06:21.379Z,57.32
2022-08-31T11:09:03.921Z,57.33
2022-08-31T11:11:52.466Z,57.56
2022-08-31T11:14:30.474Z,57.63
2022-08-31T11:17:20.247Z,57.63
2022-08-31T11:20:11.996Z,57.96
2022-08-31T11:22:44.101Z,57.83
2022-08-31T11:25:26.298Z,57.99
2022-08-31T11:28:11.355Z,58.10
2022-08-31T11:30:50.890Z,58.36
2022-08-31T11:33:28.740Z,58.28
2022-08-31T11:36:10.889Z,58.44
2022-08-31T11:38:50.641Z,58.60
2022-08-31T11:41:47.506Z,58.45
2022-08-31T11:44:32.942Z,58.44
2022-08-31T11:47:07.725Z,58.43
2022-08-31T11:49:41.631Z,58.56
2022-08-31T11:52:25.894Z,58.49
2022-08-31T11:55:00.262Z,58.59
2022-08-31T11:57:37.016Z,58.56
2022-08-31T12:00:21.436Z,58.40
2022-08-31T12:06:53.342Z,58.58
2022-08-31T12:09:52.922Z,58.49
2022-08-31T12:13:25.714Z,58.64
2022-08-31T12:16:19.982Z,58.66
2022-08-31T12:19:41.638Z,58.62
2022-08-31T12:23:28.688Z,58.84
2022-08-31T12:26:12.104Z,58.93
2022-08-31T12:29:02.688Z,59.06
2022-08-31T12:31:35.379Z,59.26
2022-08-31T12:38:31.577Z,59.12
2022-08-31T12:41:00.614Z,58.97
2022-08-31T12:48:53.745Z,58.75
2022-08-31T12:52:15.252Z,58.67
2022-08-31T12:55:03.541Z,58.62
2022-08-31T12:57:59.897Z,58.53
2022-08-31T13:00:32.482Z,58.57
2022-08-31T13:03:18.680Z,58.52
2022-08-31T13:06:09.662Z,58.47
2022-08-31T13:08:50.440Z,58.31
2022-08-31T13:11:40.994Z,58.50
2022-08-31T13:14:41.202Z,58.75
2022-08-31T13:17:24.632Z,58.77
2022-08-31T13:19:55.696Z,58.50
2022-08-31T13:22:43.330Z,58.61
2022-08-31T13:25:17.704Z,58.18
2022-08-31T13:27:52.363Z,58.15
2022-08-31T13:30:25.487Z,58.05
2022-08-31T13:32:55.308Z,57.50
2022-08-31T13:35:27.368Z,57.22
2022-08-31T13:38:05.821Z,56.84
2022-08-31T13:40:38.467Z,56.83
2022-08-31T13:43:10.274Z,56.73
2022-08-31T13:45:59.395Z,56.63
2022-08-31T13:48:40.534Z,56.66
2022-08-31T13:51:19.654Z,56.83
2022-08-31T13:53:55.439Z,56.68
2022-08-31T13:56:56.394Z,56.61
2022-08-31T13:59:30.685Z,56.59
2022-08-31T14:01:59.969Z,56.34
2022-08-31T14:04:49.420Z,56.53
2022-08-31T14:07:24.302Z,56.77
2022-08-31T14:09:58.209Z,56.79
2022-08-31T14:12:36.109Z,56.87
2022-08-31T14:15:36.187Z,56.95
2022-08-31T14:18:26.126Z,56.68
2022-08-31T14:21:21.564Z,56.52
2022-08-31T14:24:08.476Z,56.24
2022-08-31T14:26:42.163Z,56.17
2022-08-31T14:29:18.394Z,56.26
2022-08-31T14:31:52.719Z,56.29
2022-08-31T14:34:33.392Z,56.22
2022-08-31T14:37:11.457Z,56.27
2022-08-31T14:39:50.798Z,56.31
2022-08-31T14:42:27.504Z,56.20
2022-08-31T14:45:09.448Z,56.09
2022-08-31T14:47:44.675Z,56.28
2022-08-31T14:50:19.221Z,56.24
2022-08-31T14:53:00.473Z,56.30
2022-08-31T14:55:30.663Z,56.22
2022-08-31T14:58:08.965Z,56.26
2022-08-31T15:00:44.339Z,56.18
2022-08-31T15:03:16.160Z,56.12
2022-08-31T15:05:48.494Z,56.22
2022-08-31T15:08:22.877Z,56.31
2022-08-31T15:11:07.644Z,56.37
2022-08-31T15:13:40.012Z,56.47
2022-08-31T15:16:13.933Z,56.39
2022-08-31T15:18:43.361Z,56.52
2022-08-31T15:21:13.153Z,56.49
2022-08-31T15:23:42.967Z,56.41
2022-08-31T15:26:16.127Z,56.45
2022-08-31T15:28:46.125Z,56.41
2022-08-31T15:31:26.082Z,56.28
2022-08-31T15:33:57.619Z,56.13
2022-08-31T15:36:28.555Z,56.08
2022-08-31T15:38:59.450Z,55.95
2022-08-31T15:41:32.396Z,55.98
2022-08-31T15:44:03.135Z,55.88
2022-08-31T15:46:51.352Z,55.73
2022-08-31T15:49:21.598Z,55.84
2022-08-31T15:51:54.606Z,55.79
2022-08-31T15:54:27.041Z,55.81
2022-08-31T15:56:58.597Z,55.79
2022-08-31T15:59:27.716Z,55.73
2022-08-31T16:01:56.949Z,55.82
2022-08-31T16:04:26.573Z,55.80
2022-08-31T16:06:56.730Z,55.90
2022-08-31T16:09:26.338Z,55.92
2022-08-31T16:11:55.812Z,55.86
2022-08-31T16:14:25.435Z,55.87
2022-08-31T16:16:54.243Z,55.70
2022-08-31T16:19:35.118Z,55.83
2022-08-31T16:22:07.889Z,55.71
2022-08-31T16:24:37.891Z,55.69
2022-08-31T16:27:15.953Z,55.84
2022-08-31T16:29:47.852Z,55.80
2022-08-31T16:32:17.444Z,55.79
2022-08-31T16:34:46.364Z,55.81
2022-08-31T16:37:18.357Z,55.85
2022-08-31T16:39:48.048Z,55.88
2022-08-31T16:42:17.963Z,55.90
2022-08-31T16:44:48.183Z,55.93
2022-08-31T16:47:19.736Z,56.00
2022-08-31T16:49:49.051Z,55.96
2022-08-31T16:52:27.634Z,55.95
2022-08-31T16:55:00.316Z,55.99
2022-08-31T16:57:33.343Z,55.82
2022-08-31T17:00:04.997Z,55.94
2022-08-31T17:02:34.094Z,56.05
2022-08-31T17:05:05.101Z,56.05
2022-08-31T17:07:35.172Z,56.01
2022-08-31T17:10:08.727Z,55.98
2022-08-31T17:12:39.202Z,56.13
2022-08-31T17:15:10.346Z,56.00
2022-08-31T17:17:39.322Z,56.22
2022-08-31T17:20:28.367Z,56.32
2022-08-31T17:22:59.113Z,56.45
2022-08-31T17:25:28.221Z,56.36
2022-08-31T17:27:59.914Z,56.41
2022-08-31T17:30:32.941Z,56.32
2022-08-31T17:33:06.554Z,56.32
2022-08-31T17:35:35.438Z,56.57
2022-08-31T17:38:04.548Z,56.42
2022-08-31T17:40:33.649Z,56.67
2022-08-31T17:43:02.793Z,56.54
2022-08-31T17:45:31.929Z,56.62
2022-08-31T17:48:00.956Z,56.73
2022-08-31T17:50:29.933Z,56.72
2022-08-31T17:52:59.298Z,56.84
2022-08-31T17:55:30.507Z,56.94
2022-08-31T17:57:59.646Z,56.99
2022-08-31T18:00:28.918Z,56.88
2022-08-31T18:02:58.060Z,57.14
2022-08-31T18:05:28.342Z,57.02
2022-08-31T18:07:57.826Z,57.12
2022-08-31T18:10:26.790Z,57.17
2022-08-31T18:12:55.590Z,57.16
2022-08-31T18:15:24.569Z,57.47
2022-08-31T18:17:56.067Z,57.47
2022-08-31T18:20:25.755Z,57.54
2022-08-31T18:22:54.719Z,57.45
2022-08-31T18:25:23.741Z,57.62
2022-08-31T18:27:51.842Z,57.56
2022-08-31T18:30:20.986Z,57.78
2022-08-31T18:32:49.556Z,57.76
2022-08-31T18:35:18.152Z,57.82
2022-08-31T18:37:49.078Z,57.74
2022-08-31T18:40:36.446Z,57.86
2022-08-31T18:43:23.336Z,58.03
2022-08-31T18:45:51.941Z,58.11
2022-08-31T18:48:26.173Z,58.02
2022-08-31T18:50:59.426Z,58.17
2022-08-31T18:53:30.447Z,58.34
2022-08-31T18:56:08.118Z,58.23
2022-08-31T18:58:40.086Z,58.30
2022-08-31T19:01:11.897Z,58.37
2022-08-31T19:03:41.751Z,58.32
2022-08-31T19:06:31.312Z,58.71
2022-08-31T19:09:04.427Z,58.64
2022-08-31T19:11:38.802Z,58.90
2022-08-31T19:14:07.756Z,58.76
2022-08-31T19:16:42.729Z,58.87
2022-08-31T19:19:13.758Z,58.78
2022-08-31T19:21:42.657Z,58.88
2022-08-31T19:24:15.482Z,58.92
2022-08-31T19:27:01.780Z,58.95
2022-08-31T19:29:31.581Z,58.88
2022-08-31T19:32:02.963Z,59.16
2022-08-31T19:34:37.346Z,59.19
2022-08-31T19:37:07.742Z,59.10
2022-08-31T19:39:37.559Z,59.19
2022-08-31T19:42:08.811Z,59.19
2022-08-31T19:45:23.924Z,59.29
2022-08-31T19:47:31.378Z,59.34
2022-08-31T19:50:01.706Z,59.55
2022-08-31T19:52:29.956Z,59.69
2022-08-31T19:55:09.099Z,59.74
2022-08-31T19:57:39.397Z,59.69
2022-08-31T20:00:11.981Z,59.78
2022-08-31T20:02:50.162Z,59.88
2022-08-31T20:05:34.054Z,59.90
2022-08-31T20:08:09.485Z,60.00
2022-08-31T20:10:43.126Z,59.99
2022-08-31T20:13:13.781Z,60.09
2022-08-31T20:15:45.983Z,60.10
2022-08-31T20:18:18.128Z,60.24
2022-08-31T20:20:55.657Z,60.49
2022-08-31T20:23:39.529Z,60.38
2022-08-31T20:26:22.684Z,60.54
2022-08-31T20:29:04.253Z,60.54
2022-08-31T20:31:35.445Z,60.47
2022-08-31T20:34:04.089Z,60.61
2022-08-31T20:36:35.340Z,60.64
2022-08-31T20:39:09.871Z,60.72
2022-08-31T20:41:46.828Z,60.79
2022-08-31T20:44:24.556Z,60.73
2022-08-31T20:47:17.694Z,60.83
2022-08-31T20:49:58.433Z,60.92
2022-08-31T20:52:33.194Z,60.98
2022-08-31T20:55:04.928Z,60.88
2022-08-31T20:57:35.865Z,60.92
2022-08-31T21:00:07.644Z,60.92
2022-08-31T21:02:38.282Z,61.06
2022-08-31T21:05:36.388Z,61.26
2022-08-31T21:07:57.990Z,61.25
2022-08-31T21:10:37.519Z,61.31
2022-08-31T21:13:09.877Z,61.34
2022-08-31T21:15:45.055Z,61.34
2022-08-31T21:18:19.779Z,61.39
2022-08-31T21:20:49.494Z,61.42
2022-08-31T21:23:18.991Z,61.50
2022-08-31T21:25:48.103Z,61.63
2022-08-31T21:28:18.306Z,61.74
2022-08-31T21:30:50.383Z,61.69
2022-08-31T21:33:19.782Z,61.88
2022-08-31T21:35:48.998Z,61.83
2022-08-31T21:38:18.564Z,61.85
2022-08-31T21:40:49.151Z,61.83
2022-08-31T21:43:18.566Z,61.92
2022-08-31T21:45:55.174Z,62.00
2022-08-31T21:48:26.280Z,62.11
2022-08-31T21:50:55.307Z,62.14
2022-08-31T21:53:28.814Z,62.17
2022-08-31T21:55:57.417Z,62.20
2022-08-31T21:58:27.737Z,62.15
2022-08-31T22:00:56.897Z,62.37
2022-08-31T22:03:27.617Z,62.26
2022-08-31T22:05:56.590Z,62.46
2022-08-31T22:08:26.551Z,62.34
2022-08-31T22:10:55.782Z,62.34
2022-08-31T22:13:24.704Z,62.54
2022-08-31T22:15:56.885Z,62.52
2022-08-31T22:18:59.567Z,62.62
2022-08-31T22:21:24.848Z,62.64
2022-08-31T22:23:57.255Z,62.64
2022-08-31T22:26:29.253Z,62.64
2022-08-31T22:28:59.524Z,62.73
2022-08-31T22:31:30.383Z,62.80
2022-08-31T22:33:59.507Z,62.79
2022-08-31T22:36:32.509Z,62.88
2022-08-31T22:39:04.830Z,62.82
2022-08-31T22:41:37.749Z,62.83
2022-08-31T22:44:10.494Z,62.75
2022-08-31T22:46:43.395Z,62.98
2022-08-31T22:49:14.432Z,63.05
2022-08-31T22:51:48.129Z,63.14
2022-08-31T22:54:20.013Z,62.91
2022-08-31T22:56:49.504Z,62.92
2022-08-31T22:59:28.182Z,63.03
